sensor_id;sensor_type;location;lat;lon;timestamp;P1;durP1;ratioP1;P2;durP2;ratioP2
33993;SDS011;20673;48.980;8.138;2022-09-30T00:00:12;6.20;;;4.93;;
33993;SDS011;20673;48.980;8.138;2022-09-30T00:02:39;6.47;;;4.87;;
33993;SDS011;20673;48.980;8.138;2022-09-30T00:05:05;8.17;;;5.37;;
33993;SDS011;20673;48.980;8.138;2022-09-30T00:07:32;5.70;;;4.80;;
33993;SDS011;20673;48.980;8.138;2022-09-30T00:09:58;6.37;;;5.13;;
33993;SDS011;20673;48.980;8.138;2022-09-30T00:12:24;6.10;;;5.50;;
33993;SDS011;20673;48.980;8.138;2022-09-30T00:14:52;7.00;;;5.57;;
33993;SDS011;20673;48.980;8.138;2022-09-30T00:17:19;6.53;;;5.70;;
33993;SDS011;20673;48.980;8.138;2022-09-30T00:19:45;6.23;;;5.63;;
33993;SDS011;20673;48.980;8.138;2022-09-30T00:22:12;7.77;;;4.80;;
33993;SDS011;20673;48.980;8.138;2022-09-30T00:24:38;6.33;;;5.43;;
33993;SDS011;20673;48.980;8.138;2022-09-30T00:27:04;7.00;;;5.40;;
33993;SDS011;20673;48.980;8.138;2022-09-30T00:29:30;10.73;;;5.63;;
33993;SDS011;20673;48.980;8.138;2022-09-30T00:31:57;9.20;;;5.73;;
33993;SDS011;20673;48.980;8.138;2022-09-30T00:34:23;6.37;;;5.37;;
33993;SDS011;20673;48.980;8.138;2022-09-30T00:36:50;7.23;;;5.13;;
33993;SDS011;20673;48.980;8.138;2022-09-30T00:39:21;6.40;;;5.33;;
33993;SDS011;20673;48.980;8.138;2022-09-30T00:41:51;7.90;;;5.47;;
33993;SDS011;20673;48.980;8.138;2022-09-30T00:50:25;7.07;;;4.83;;
33993;SDS011;20673;48.980;8.138;2022-09-30T00:58:35;6.47;;;5.07;;
33993;SDS011;20673;48.980;8.138;2022-09-30T01:01:22;8.23;;;5.87;;
33993;SDS011;20673;48.980;8.138;2022-09-30T01:06:29;8.00;;;5.60;;
33993;SDS011;20673;48.980;8.138;2022-09-30T01:08:55;7.17;;;5.50;;
33993;SDS011;20673;48.980;8.138;2022-09-30T01:11:28;8.20;;;6.10;;
33993;SDS011;20673;48.980;8.138;2022-09-30T01:13:56;7.53;;;5.03;;
33993;SDS011;20673;48.980;8.138;2022-09-30T01:25:12;6.27;;;4.80;;
33993;SDS011;20673;48.980;8.138;2022-09-30T01:28:08;8.47;;;4.90;;
33993;SDS011;20673;48.980;8.138;2022-09-30T01:37:10;5.47;;;4.90;;
33993;SDS011;20673;48.980;8.138;2022-09-30T01:42:34;7.93;;;5.60;;
33993;SDS011;20673;48.980;8.138;2022-09-30T01:47:42;6.67;;;5.43;;
33993;SDS011;20673;48.980;8.138;2022-09-30T01:50:20;6.23;;;4.93;;
33993;SDS011;20673;48.980;8.138;2022-09-30T01:53:18;7.30;;;4.83;;
33993;SDS011;20673;48.980;8.138;2022-09-30T01:56:00;7.17;;;5.03;;
33993;SDS011;20673;48.980;8.138;2022-09-30T01:58:46;10.13;;;8.23;;
33993;SDS011;20673;48.980;8.138;2022-09-30T02:01:28;8.10;;;6.30;;
33993;SDS011;20673;48.980;8.138;2022-09-30T02:04:09;8.17;;;5.67;;
33993;SDS011;20673;48.980;8.138;2022-09-30T02:06:40;6.87;;;4.90;;
33993;SDS011;20673;48.980;8.138;2022-09-30T02:09:12;5.63;;;4.90;;
33993;SDS011;20673;48.980;8.138;2022-09-30T02:11:52;6.23;;;5.20;;
33993;SDS011;20673;48.980;8.138;2022-09-30T02:14:35;8.00;;;5.30;;
33993;SDS011;20673;48.980;8.138;2022-09-30T02:17:23;6.77;;;5.27;;
33993;SDS011;20673;48.980;8.138;2022-09-30T02:20:08;6.60;;;4.97;;
33993;SDS011;20673;48.980;8.138;2022-09-30T02:22:43;6.40;;;4.80;;
33993;SDS011;20673;48.980;8.138;2022-09-30T02:25:25;5.93;;;4.83;;
33993;SDS011;20673;48.980;8.138;2022-09-30T02:27:57;5.83;;;4.70;;
33993;SDS011;20673;48.980;8.138;2022-09-30T02:30:28;6.43;;;4.90;;
33993;SDS011;20673;48.980;8.138;2022-09-30T02:33:07;6.53;;;4.67;;
33993;SDS011;20673;48.980;8.138;2022-09-30T02:35:38;5.47;;;4.50;;
33993;SDS011;20673;48.980;8.138;2022-09-30T02:38:15;8.00;;;5.80;;
33993;SDS011;20673;48.980;8.138;2022-09-30T02:40:49;8.40;;;4.90;;
33993;SDS011;20673;48.980;8.138;2022-09-30T02:43:23;8.67;;;5.20;;
33993;SDS011;20673;48.980;8.138;2022-09-30T02:51:48;6.20;;;4.25;;
33993;SDS011;20673;48.980;8.138;2022-09-30T03:00:08;6.10;;;3.90;;
33993;SDS011;20673;48.980;8.138;2022-09-30T03:02:35;5.17;;;3.67;;
33993;SDS011;20673;48.980;8.138;2022-09-30T03:05:01;6.50;;;4.90;;
33993;SDS011;20673;48.980;8.138;2022-09-30T03:07:28;5.73;;;4.50;;
33993;SDS011;20673;48.980;8.138;2022-09-30T03:09:55;4.93;;;4.40;;
33993;SDS011;20673;48.980;8.138;2022-09-30T03:12:38;6.40;;;4.37;;
33993;SDS011;20673;48.980;8.138;2022-09-30T03:27:34;5.83;;;4.23;;
33993;SDS011;20673;48.980;8.138;2022-09-30T03:30:17;8.00;;;4.28;;
33993;SDS011;20673;48.980;8.138;2022-09-30T03:38:26;7.37;;;4.70;;
33993;SDS011;20673;48.980;8.138;2022-09-30T03:44:15;8.93;;;4.90;;
33993;SDS011;20673;48.980;8.138;2022-09-30T03:46:52;5.30;;;4.67;;
33993;SDS011;20673;48.980;8.138;2022-09-30T03:49:30;6.47;;;4.40;;
33993;SDS011;20673;48.980;8.138;2022-09-30T03:52:04;7.40;;;4.13;;
33993;SDS011;20673;48.980;8.138;2022-09-30T03:54:33;8.33;;;4.77;;
33993;SDS011;20673;48.980;8.138;2022-09-30T03:57:15;6.20;;;4.00;;
33993;SDS011;20673;48.980;8.138;2022-09-30T03:59:41;6.20;;;4.10;;
33993;SDS011;20673;48.980;8.138;2022-09-30T04:02:08;5.80;;;4.00;;
33993;SDS011;20673;48.980;8.138;2022-09-30T04:04:36;4.90;;;3.50;;
33993;SDS011;20673;48.980;8.138;2022-09-30T04:07:02;5.63;;;4.20;;
33993;SDS011;20673;48.980;8.138;2022-09-30T04:09:29;4.60;;;3.83;;
33993;SDS011;20673;48.980;8.138;2022-09-30T04:11:55;4.83;;;3.67;;
33993;SDS011;20673;48.980;8.138;2022-09-30T04:14:21;5.27;;;4.23;;
33993;SDS011;20673;48.980;8.138;2022-09-30T04:16:47;5.30;;;4.20;;
33993;SDS011;20673;48.980;8.138;2022-09-30T04:19:13;6.00;;;4.00;;
33993;SDS011;20673;48.980;8.138;2022-09-30T04:21:39;5.70;;;4.20;;
33993;SDS011;20673;48.980;8.138;2022-09-30T04:24:05;4.63;;;3.23;;
33993;SDS011;20673;48.980;8.138;2022-09-30T04:26:32;6.20;;;3.50;;
33993;SDS011;20673;48.980;8.138;2022-09-30T04:28:58;6.00;;;3.67;;
33993;SDS011;20673;48.980;8.138;2022-09-30T04:31:24;5.17;;;3.63;;
33993;SDS011;20673;48.980;8.138;2022-09-30T04:33:51;4.93;;;3.83;;
33993;SDS011;20673;48.980;8.138;2022-09-30T04:36:17;4.07;;;3.00;;
33993;SDS011;20673;48.980;8.138;2022-09-30T04:38:43;5.00;;;3.40;;
33993;SDS011;20673;48.980;8.138;2022-09-30T04:41:15;6.83;;;3.27;;
33993;SDS011;20673;48.980;8.138;2022-09-30T04:43:43;5.23;;;3.50;;
33993;SDS011;20673;48.980;8.138;2022-09-30T04:46:12;6.78;;;3.50;;
33993;SDS011;20673;48.980;8.138;2022-09-30T04:48:44;3.67;;;3.33;;
33993;SDS011;20673;48.980;8.138;2022-09-30T04:51:12;4.63;;;3.50;;
33993;SDS011;20673;48.980;8.138;2022-09-30T04:53:43;5.58;;;3.58;;
33993;SDS011;20673;48.980;8.138;2022-09-30T04:56:10;3.90;;;3.50;;
33993;SDS011;20673;48.980;8.138;2022-09-30T04:58:37;3.70;;;3.40;;
33993;SDS011;20673;48.980;8.138;2022-09-30T05:01:09;4.70;;;3.80;;
33993;SDS011;20673;48.980;8.138;2022-09-30T05:03:35;7.55;;;3.67;;
33993;SDS011;20673;48.980;8.138;2022-09-30T05:06:02;5.13;;;3.67;;
33993;SDS011;20673;48.980;8.138;2022-09-30T05:08:29;4.03;;;3.40;;
33993;SDS011;20673;48.980;8.138;2022-09-30T05:11:00;6.10;;;3.67;;
33993;SDS011;20673;48.980;8.138;2022-09-30T05:13:31;8.17;;;4.27;;
33993;SDS011;20673;48.980;8.138;2022-09-30T05:16:00;4.27;;;3.47;;
33993;SDS011;20673;48.980;8.138;2022-09-30T05:18:27;6.83;;;3.53;;
33993;SDS011;20673;48.980;8.138;2022-09-30T05:20:55;4.57;;;3.10;;
33993;SDS011;20673;48.980;8.138;2022-09-30T05:23:22;3.50;;;3.17;;
33993;SDS011;20673;48.980;8.138;2022-09-30T05:25:50;4.93;;;3.07;;
33993;SDS011;20673;48.980;8.138;2022-09-30T05:28:17;4.47;;;3.40;;
33993;SDS011;20673;48.980;8.138;2022-09-30T05:30:44;3.77;;;3.40;;
33993;SDS011;20673;48.980;8.138;2022-09-30T05:33:12;3.27;;;2.77;;
33993;SDS011;20673;48.980;8.138;2022-09-30T05:35:39;7.67;;;3.53;;
33993;SDS011;20673;48.980;8.138;2022-09-30T05:38:07;4.03;;;3.00;;
33993;SDS011;20673;48.980;8.138;2022-09-30T05:40:38;3.83;;;3.10;;
33993;SDS011;20673;48.980;8.138;2022-09-30T05:43:05;4.70;;;3.33;;
33993;SDS011;20673;48.980;8.138;2022-09-30T05:45:32;3.30;;;2.90;;
33993;SDS011;20673;48.980;8.138;2022-09-30T05:47:59;4.80;;;3.23;;
33993;SDS011;20673;48.980;8.138;2022-09-30T05:50:26;6.73;;;3.53;;
33993;SDS011;20673;48.980;8.138;2022-09-30T05:52:52;5.70;;;3.97;;
33993;SDS011;20673;48.980;8.138;2022-09-30T05:55:19;7.77;;;4.57;;
33993;SDS011;20673;48.980;8.138;2022-09-30T05:57:47;6.70;;;4.80;;
33993;SDS011;20673;48.980;8.138;2022-09-30T06:00:15;5.73;;;4.23;;
33993;SDS011;20673;48.980;8.138;2022-09-30T06:02:42;4.23;;;3.30;;
33993;SDS011;20673;48.980;8.138;2022-09-30T06:05:09;4.40;;;3.17;;
33993;SDS011;20673;48.980;8.138;2022-09-30T06:07:37;3.40;;;3.10;;
33993;SDS011;20673;48.980;8.138;2022-09-30T06:10:04;4.50;;;2.70;;
33993;SDS011;20673;48.980;8.138;2022-09-30T06:12:34;3.53;;;2.97;;
33993;SDS011;20673;48.980;8.138;2022-09-30T06:15:03;4.83;;;3.20;;
33993;SDS011;20673;48.980;8.138;2022-09-30T06:17:30;4.00;;;2.63;;
33993;SDS011;20673;48.980;8.138;2022-09-30T06:19:57;4.33;;;2.97;;
33993;SDS011;20673;48.980;8.138;2022-09-30T06:22:23;3.97;;;3.17;;
33993;SDS011;20673;48.980;8.138;2022-09-30T06:24:49;4.23;;;3.10;;
33993;SDS011;20673;48.980;8.138;2022-09-30T06:27:16;2.87;;;2.57;;
33993;SDS011;20673;48.980;8.138;2022-09-30T06:29:42;6.10;;;2.87;;
33993;SDS011;20673;48.980;8.138;2022-09-30T06:32:08;6.50;;;3.80;;
33993;SDS011;20673;48.980;8.138;2022-09-30T06:34:34;6.83;;;4.30;;
33993;SDS011;20673;48.980;8.138;2022-09-30T06:37:00;9.83;;;5.60;;
33993;SDS011;20673;48.980;8.138;2022-09-30T06:39:26;9.97;;;6.63;;
33993;SDS011;20673;48.980;8.138;2022-09-30T06:41:52;8.97;;;6.17;;
33993;SDS011;20673;48.980;8.138;2022-09-30T06:44:20;11.93;;;9.00;;
33993;SDS011;20673;48.980;8.138;2022-09-30T06:46:46;13.93;;;9.30;;
33993;SDS011;20673;48.980;8.138;2022-09-30T06:49:12;8.73;;;7.30;;
33993;SDS011;20673;48.980;8.138;2022-09-30T06:51:39;9.73;;;6.30;;
33993;SDS011;20673;48.980;8.138;2022-09-30T06:54:05;7.90;;;6.60;;
33993;SDS011;20673;48.980;8.138;2022-09-30T06:56:33;10.10;;;6.20;;
33993;SDS011;20673;48.980;8.138;2022-09-30T06:59:00;8.60;;;6.23;;
33993;SDS011;20673;48.980;8.138;2022-09-30T07:01:26;10.47;;;6.17;;
33993;SDS011;20673;48.980;8.138;2022-09-30T07:03:54;9.67;;;5.77;;
33993;SDS011;20673;48.980;8.138;2022-09-30T07:06:22;9.23;;;6.43;;
33993;SDS011;20673;48.980;8.138;2022-09-30T07:08:50;9.97;;;6.43;;
33993;SDS011;20673;48.980;8.138;2022-09-30T07:11:18;8.53;;;6.50;;
33993;SDS011;20673;48.980;8.138;2022-09-30T07:13:48;10.50;;;7.37;;
33993;SDS011;20673;48.980;8.138;2022-09-30T07:16:15;9.23;;;7.03;;
33993;SDS011;20673;48.980;8.138;2022-09-30T07:18:43;10.47;;;6.70;;
33993;SDS011;20673;48.980;8.138;2022-09-30T07:21:11;8.07;;;6.13;;
33993;SDS011;20673;48.980;8.138;2022-09-30T07:23:40;9.07;;;6.07;;
33993;SDS011;20673;48.980;8.138;2022-09-30T07:26:13;10.43;;;6.80;;
33993;SDS011;20673;48.980;8.138;2022-09-30T07:28:42;14.10;;;7.00;;
33993;SDS011;20673;48.980;8.138;2022-09-30T07:31:10;7.83;;;6.97;;
33993;SDS011;20673;48.980;8.138;2022-09-30T07:33:42;8.70;;;6.30;;
33993;SDS011;20673;48.980;8.138;2022-09-30T07:36:09;10.20;;;6.07;;
33993;SDS011;20673;48.980;8.138;2022-09-30T07:38:38;8.60;;;5.97;;
33993;SDS011;20673;48.980;8.138;2022-09-30T07:41:17;7.78;;;6.12;;
33993;SDS011;20673;48.980;8.138;2022-09-30T07:43:52;7.53;;;6.00;;
33993;SDS011;20673;48.980;8.138;2022-09-30T07:46:24;9.53;;;6.80;;
33993;SDS011;20673;48.980;8.138;2022-09-30T07:48:54;8.65;;;5.97;;
33993;SDS011;20673;48.980;8.138;2022-09-30T07:51:32;7.90;;;6.53;;
33993;SDS011;20673;48.980;8.138;2022-09-30T07:54:08;8.90;;;6.42;;
33993;SDS011;20673;48.980;8.138;2022-09-30T07:56:41;10.03;;;6.60;;
33993;SDS011;20673;48.980;8.138;2022-09-30T07:59:08;10.40;;;7.37;;
33993;SDS011;20673;48.980;8.138;2022-09-30T08:01:37;9.88;;;6.15;;
33993;SDS011;20673;48.980;8.138;2022-09-30T08:04:04;9.85;;;7.33;;
33993;SDS011;20673;48.980;8.138;2022-09-30T08:06:37;10.00;;;7.45;;
33993;SDS011;20673;48.980;8.138;2022-09-30T08:09:07;11.73;;;7.63;;
33993;SDS011;20673;48.980;8.138;2022-09-30T08:11:34;13.25;;;7.45;;
33993;SDS011;20673;48.980;8.138;2022-09-30T08:14:02;10.28;;;7.10;;
33993;SDS011;20673;48.980;8.138;2022-09-30T08:16:29;13.75;;;7.12;;
33993;SDS011;20673;48.980;8.138;2022-09-30T08:18:56;12.37;;;7.50;;
33993;SDS011;20673;48.980;8.138;2022-09-30T08:21:26;10.00;;;7.17;;
33993;SDS011;20673;48.980;8.138;2022-09-30T08:23:53;16.70;;;7.12;;
33993;SDS011;20673;48.980;8.138;2022-09-30T08:26:20;12.23;;;8.18;;
33993;SDS011;20673;48.980;8.138;2022-09-30T08:28:46;12.40;;;8.83;;
33993;SDS011;20673;48.980;8.138;2022-09-30T08:31:14;11.83;;;8.55;;
33993;SDS011;20673;48.980;8.138;2022-09-30T08:33:43;13.65;;;9.55;;
33993;SDS011;20673;48.980;8.138;2022-09-30T08:36:14;12.10;;;9.18;;
33993;SDS011;20673;48.980;8.138;2022-09-30T08:38:44;12.80;;;8.33;;
33993;SDS011;20673;48.980;8.138;2022-09-30T08:41:14;11.25;;;7.90;;
33993;SDS011;20673;48.980;8.138;2022-09-30T08:50:04;10.88;;;8.43;;
33993;SDS011;20673;48.980;8.138;2022-09-30T08:52:51;11.90;;;8.13;;
33993;SDS011;20673;48.980;8.138;2022-09-30T08:55:23;12.30;;;8.48;;
33993;SDS011;20673;48.980;8.138;2022-09-30T08:58:00;10.23;;;8.03;;
33993;SDS011;20673;48.980;8.138;2022-09-30T09:00:29;12.95;;;9.40;;
33993;SDS011;20673;48.980;8.138;2022-09-30T09:02:58;12.90;;;9.23;;
33993;SDS011;20673;48.980;8.138;2022-09-30T09:05:31;10.85;;;9.68;;
33993;SDS011;20673;48.980;8.138;2022-09-30T09:10:44;13.58;;;9.85;;
33993;SDS011;20673;48.980;8.138;2022-09-30T09:18:52;12.47;;;9.95;;
33993;SDS011;20673;48.980;8.138;2022-09-30T09:24:26;15.13;;;10.60;;
33993;SDS011;20673;48.980;8.138;2022-09-30T09:26:56;11.93;;;10.57;;
33993;SDS011;20673;48.980;8.138;2022-09-30T09:32:25;13.73;;;9.17;;
33993;SDS011;20673;48.980;8.138;2022-09-30T09:34:57;10.77;;;8.60;;
33993;SDS011;20673;48.980;8.138;2022-09-30T09:43:19;10.90;;;9.10;;
33993;SDS011;20673;48.980;8.138;2022-09-30T09:48:23;9.43;;;8.20;;
33993;SDS011;20673;48.980;8.138;2022-09-30T09:50:52;9.88;;;7.85;;
33993;SDS011;20673;48.980;8.138;2022-09-30T09:56:20;15.48;;;6.85;;
33993;SDS011;20673;48.980;8.138;2022-09-30T09:59:09;7.83;;;7.13;;
33993;SDS011;20673;48.980;8.138;2022-09-30T10:01:42;9.55;;;7.12;;
33993;SDS011;20673;48.980;8.138;2022-09-30T10:04:15;8.60;;;7.03;;
33993;SDS011;20673;48.980;8.138;2022-09-30T10:06:51;9.40;;;6.97;;
33993;SDS011;20673;48.980;8.138;2022-09-30T10:09:39;9.47;;;7.00;;
33993;SDS011;20673;48.980;8.138;2022-09-30T10:17:25;8.23;;;6.50;;
33993;SDS011;20673;48.980;8.138;2022-09-30T10:23:01;11.63;;;6.45;;
33993;SDS011;20673;48.980;8.138;2022-09-30T10:25:37;6.60;;;5.97;;
33993;SDS011;20673;48.980;8.138;2022-09-30T10:28:18;7.85;;;5.45;;
33993;SDS011;20673;48.980;8.138;2022-09-30T10:30:57;6.75;;;5.03;;
33993;SDS011;20673;48.980;8.138;2022-09-30T10:33:34;6.28;;;5.55;;
33993;SDS011;20673;48.980;8.138;2022-09-30T10:36:12;6.20;;;5.60;;
33993;SDS011;20673;48.980;8.138;2022-09-30T10:38:53;6.30;;;5.53;;
33993;SDS011;20673;48.980;8.138;2022-09-30T10:41:43;6.65;;;5.40;;
33993;SDS011;20673;48.980;8.138;2022-09-30T10:44:14;6.97;;;5.47;;
33993;SDS011;20673;48.980;8.138;2022-09-30T10:46:48;7.00;;;5.60;;
33993;SDS011;20673;48.980;8.138;2022-09-30T10:49:27;5.40;;;4.90;;
33993;SDS011;20673;48.980;8.138;2022-09-30T10:52:02;6.33;;;5.20;;
33993;SDS011;20673;48.980;8.138;2022-09-30T10:57:23;7.53;;;4.70;;
33993;SDS011;20673;48.980;8.138;2022-09-30T10:59:48;5.70;;;4.47;;
33993;SDS011;20673;48.980;8.138;2022-09-30T11:05:11;4.97;;;4.45;;
33993;SDS011;20673;48.980;8.138;2022-09-30T11:14:00;6.25;;;4.53;;
33993;SDS011;20673;48.980;8.138;2022-09-30T11:16:59;7.20;;;4.15;;
33993;SDS011;20673;48.980;8.138;2022-09-30T11:25:05;5.92;;;4.50;;
33993;SDS011;20673;48.980;8.138;2022-09-30T11:30:29;9.03;;;4.70;;
33993;SDS011;20673;48.980;8.138;2022-09-30T11:41:55;7.65;;;4.55;;
33993;SDS011;20673;48.980;8.138;2022-09-30T11:44:43;7.92;;;4.35;;
33993;SDS011;20673;48.980;8.138;2022-09-30T11:47:22;4.95;;;4.28;;
33993;SDS011;20673;48.980;8.138;2022-09-30T11:52:52;5.22;;;3.62;;
33993;SDS011;20673;48.980;8.138;2022-09-30T11:55:36;4.93;;;4.30;;
33993;SDS011;20673;48.980;8.138;2022-09-30T11:58:11;5.80;;;4.07;;
33993;SDS011;20673;48.980;8.138;2022-09-30T12:00:40;11.40;;;3.92;;
33993;SDS011;20673;48.980;8.138;2022-09-30T12:03:15;7.10;;;4.33;;
33993;SDS011;20673;48.980;8.138;2022-09-30T12:05:57;8.33;;;4.33;;
33993;SDS011;20673;48.980;8.138;2022-09-30T12:08:34;4.42;;;3.90;;
33993;SDS011;20673;48.980;8.138;2022-09-30T12:11:13;7.90;;;3.60;;
33993;SDS011;20673;48.980;8.138;2022-09-30T12:13:54;4.85;;;3.37;;
33993;SDS011;20673;48.980;8.138;2022-09-30T12:16:26;6.70;;;4.37;;
33993;SDS011;20673;48.980;8.138;2022-09-30T12:19:15;7.47;;;4.10;;
33993;SDS011;20673;48.980;8.138;2022-09-30T12:21:53;6.77;;;3.27;;
33993;SDS011;20673;48.980;8.138;2022-09-30T12:27:00;5.45;;;3.27;;
33993;SDS011;20673;48.980;8.138;2022-09-30T12:38:31;5.57;;;2.80;;
33993;SDS011;20673;48.980;8.138;2022-09-30T12:44:47;6.35;;;3.87;;
33993;SDS011;20673;48.980;8.138;2022-09-30T12:47:34;4.45;;;3.20;;
33993;SDS011;20673;48.980;8.138;2022-09-30T12:50:06;6.47;;;3.72;;
33993;SDS011;20673;48.980;8.138;2022-09-30T12:52:34;5.47;;;2.92;;
33993;SDS011;20673;48.980;8.138;2022-09-30T12:57:59;4.97;;;3.22;;
33993;SDS011;20673;48.980;8.138;2022-09-30T13:00:28;5.42;;;3.12;;
33993;SDS011;20673;48.980;8.138;2022-09-30T13:03:06;6.22;;;2.98;;
33993;SDS011;20673;48.980;8.138;2022-09-30T13:10:55;5.58;;;2.72;;
33993;SDS011;20673;48.980;8.138;2022-09-30T13:13:25;5.20;;;2.85;;
33993;SDS011;20673;48.980;8.138;2022-09-30T13:15:59;4.20;;;2.85;;
33993;SDS011;20673;48.980;8.138;2022-09-30T13:31:30;2.45;;;2.12;;
33993;SDS011;20673;48.980;8.138;2022-09-30T13:34:13;4.47;;;2.83;;
33993;SDS011;20673;48.980;8.138;2022-09-30T13:39:29;3.07;;;2.37;;
33993;SDS011;20673;48.980;8.138;2022-09-30T13:44:58;4.90;;;2.40;;
33993;SDS011;20673;48.980;8.138;2022-09-30T13:47:32;6.50;;;2.67;;
33993;SDS011;20673;48.980;8.138;2022-09-30T13:52:57;3.42;;;2.50;;
33993;SDS011;20673;48.980;8.138;2022-09-30T13:55:31;5.37;;;2.52;;
33993;SDS011;20673;48.980;8.138;2022-09-30T14:21:53;3.67;;;2.90;;
33993;SDS011;20673;48.980;8.138;2022-09-30T14:24:24;6.50;;;3.37;;
33993;SDS011;20673;48.980;8.138;2022-09-30T14:35:32;4.50;;;3.17;;
33993;SDS011;20673;48.980;8.138;2022-09-30T14:37:59;5.35;;;3.65;;
33993;SDS011;20673;48.980;8.138;2022-09-30T14:40:31;4.20;;;3.40;;
33993;SDS011;20673;48.980;8.138;2022-09-30T14:43:01;3.72;;;3.02;;
33993;SDS011;20673;48.980;8.138;2022-09-30T14:45:32;4.58;;;3.80;;
33993;SDS011;20673;48.980;8.138;2022-09-30T14:48:07;4.80;;;3.45;;
33993;SDS011;20673;48.980;8.138;2022-09-30T14:50:46;7.83;;;3.95;;
33993;SDS011;20673;48.980;8.138;2022-09-30T14:53:35;4.12;;;3.72;;
33993;SDS011;20673;48.980;8.138;2022-09-30T14:56:41;7.42;;;3.87;;
33993;SDS011;20673;48.980;8.138;2022-09-30T14:58:48;6.80;;;4.67;;
33993;SDS011;20673;48.980;8.138;2022-09-30T15:01:18;5.53;;;4.35;;
33993;SDS011;20673;48.980;8.138;2022-09-30T15:03:54;6.35;;;3.90;;
33993;SDS011;20673;48.980;8.138;2022-09-30T15:06:25;6.33;;;3.37;;
33993;SDS011;20673;48.980;8.138;2022-09-30T15:09:07;3.98;;;3.00;;
33993;SDS011;20673;48.980;8.138;2022-09-30T15:11:32;4.53;;;2.52;;
33993;SDS011;20673;48.980;8.138;2022-09-30T15:14:04;4.55;;;3.12;;
33993;SDS011;20673;48.980;8.138;2022-09-30T15:16:42;5.70;;;2.85;;
33993;SDS011;20673;48.980;8.138;2022-09-30T15:19:19;2.95;;;2.33;;
33993;SDS011;20673;48.980;8.138;2022-09-30T15:21:56;4.30;;;2.65;;
33993;SDS011;20673;48.980;8.138;2022-09-30T15:24:26;4.87;;;2.43;;
33993;SDS011;20673;48.980;8.138;2022-09-30T15:26:56;4.62;;;2.27;;
33993;SDS011;20673;48.980;8.138;2022-09-30T15:29:25;7.75;;;2.47;;
33993;SDS011;20673;48.980;8.138;2022-09-30T15:31:54;2.12;;;1.92;;
33993;SDS011;20673;48.980;8.138;2022-09-30T15:34:26;4.78;;;1.92;;
33993;SDS011;20673;48.980;8.138;2022-09-30T15:36:59;2.47;;;1.60;;
33993;SDS011;20673;48.980;8.138;2022-09-30T15:39:27;2.35;;;1.90;;
33993;SDS011;20673;48.980;8.138;2022-09-30T15:41:58;3.50;;;2.00;;
33993;SDS011;20673;48.980;8.138;2022-09-30T15:44:42;9.55;;;2.00;;
33993;SDS011;20673;48.980;8.138;2022-09-30T15:47:04;4.70;;;1.90;;
33993;SDS011;20673;48.980;8.138;2022-09-30T15:54:57;5.62;;;2.00;;
33993;SDS011;20673;48.980;8.138;2022-09-30T16:03:18;2.80;;;2.00;;
33993;SDS011;20673;48.980;8.138;2022-09-30T16:05:46;2.40;;;1.62;;
33993;SDS011;20673;48.980;8.138;2022-09-30T16:08:17;2.47;;;1.57;;
33993;SDS011;20673;48.980;8.138;2022-09-30T16:10:52;3.20;;;2.10;;
33993;SDS011;20673;48.980;8.138;2022-09-30T16:13:22;3.90;;;2.33;;
33993;SDS011;20673;48.980;8.138;2022-09-30T16:15:54;4.33;;;2.10;;
33993;SDS011;20673;48.980;8.138;2022-09-30T16:18:23;3.95;;;2.10;;
33993;SDS011;20673;48.980;8.138;2022-09-30T16:21:03;9.10;;;3.05;;
33993;SDS011;20673;48.980;8.138;2022-09-30T16:23:38;10.60;;;7.03;;
33993;SDS011;20673;48.980;8.138;2022-09-30T16:26:12;5.63;;;4.23;;
33993;SDS011;20673;48.980;8.138;2022-09-30T16:28:50;5.63;;;2.33;;
33993;SDS011;20673;48.980;8.138;2022-09-30T16:31:17;4.72;;;2.52;;
33993;SDS011;20673;48.980;8.138;2022-09-30T16:33:44;4.35;;;2.70;;
33993;SDS011;20673;48.980;8.138;2022-09-30T16:36:11;7.90;;;3.03;;
33993;SDS011;20673;48.980;8.138;2022-09-30T16:38:39;6.25;;;3.92;;
33993;SDS011;20673;48.980;8.138;2022-09-30T16:41:10;3.57;;;3.07;;
33993;SDS011;20673;48.980;8.138;2022-09-30T16:43:38;4.23;;;2.47;;
33993;SDS011;20673;48.980;8.138;2022-09-30T16:46:05;6.23;;;3.00;;
33993;SDS011;20673;48.980;8.138;2022-09-30T16:48:33;3.80;;;2.80;;
33993;SDS011;20673;48.980;8.138;2022-09-30T16:53:41;3.70;;;2.70;;
33993;SDS011;20673;48.980;8.138;2022-09-30T16:56:15;4.40;;;3.08;;
33993;SDS011;20673;48.980;8.138;2022-09-30T16:58:44;5.50;;;2.70;;
33993;SDS011;20673;48.980;8.138;2022-09-30T17:01:18;4.65;;;2.47;;
33993;SDS011;20673;48.980;8.138;2022-09-30T17:03:47;4.65;;;2.65;;
33993;SDS011;20673;48.980;8.138;2022-09-30T17:06:18;4.83;;;3.00;;
33993;SDS011;20673;48.980;8.138;2022-09-30T17:08:47;3.30;;;2.40;;
33993;SDS011;20673;48.980;8.138;2022-09-30T17:11:14;4.00;;;3.50;;
33993;SDS011;20673;48.980;8.138;2022-09-30T17:13:41;5.87;;;3.60;;
33993;SDS011;20673;48.980;8.138;2022-09-30T17:16:07;7.33;;;3.30;;
33993;SDS011;20673;48.980;8.138;2022-09-30T17:18:34;7.20;;;3.13;;
33993;SDS011;20673;48.980;8.138;2022-09-30T17:21:00;7.10;;;3.40;;
33993;SDS011;20673;48.980;8.138;2022-09-30T17:23:26;4.97;;;3.97;;
33993;SDS011;20673;48.980;8.138;2022-09-30T17:25:52;4.57;;;3.60;;
33993;SDS011;20673;48.980;8.138;2022-09-30T17:28:19;5.07;;;4.00;;
33993;SDS011;20673;48.980;8.138;2022-09-30T17:30:46;6.13;;;3.40;;
33993;SDS011;20673;48.980;8.138;2022-09-30T17:33:13;7.07;;;4.50;;
33993;SDS011;20673;48.980;8.138;2022-09-30T17:35:41;4.37;;;3.20;;
33993;SDS011;20673;48.980;8.138;2022-09-30T17:38:08;4.83;;;3.47;;
33993;SDS011;20673;48.980;8.138;2022-09-30T17:40:37;6.93;;;3.63;;
33993;SDS011;20673;48.980;8.138;2022-09-30T17:43:22;5.83;;;3.73;;
33993;SDS011;20673;48.980;8.138;2022-09-30T17:45:49;9.43;;;3.40;;
33993;SDS011;20673;48.980;8.138;2022-09-30T17:48:16;4.78;;;3.12;;
33993;SDS011;20673;48.980;8.138;2022-09-30T17:50:44;4.17;;;3.47;;
33993;SDS011;20673;48.980;8.138;2022-09-30T17:53:13;4.05;;;3.40;;
33993;SDS011;20673;48.980;8.138;2022-09-30T17:55:42;8.70;;;4.03;;
33993;SDS011;20673;48.980;8.138;2022-09-30T17:58:11;6.12;;;4.03;;
33993;SDS011;20673;48.980;8.138;2022-09-30T18:00:39;6.33;;;4.80;;
33993;SDS011;20673;48.980;8.138;2022-09-30T18:03:05;6.97;;;5.90;;
33993;SDS011;20673;48.980;8.138;2022-09-30T18:05:34;7.47;;;5.60;;
33993;SDS011;20673;48.980;8.138;2022-09-30T18:08:01;9.80;;;5.77;;
33993;SDS011;20673;48.980;8.138;2022-09-30T18:10:27;6.10;;;5.33;;
33993;SDS011;20673;48.980;8.138;2022-09-30T18:12:54;11.15;;;5.45;;
33993;SDS011;20673;48.980;8.138;2022-09-30T18:15:21;8.73;;;5.08;;
33993;SDS011;20673;48.980;8.138;2022-09-30T18:17:47;8.83;;;5.15;;
33993;SDS011;20673;48.980;8.138;2022-09-30T18:20:14;7.92;;;5.90;;
33993;SDS011;20673;48.980;8.138;2022-09-30T18:22:42;11.50;;;5.87;;
33993;SDS011;20673;48.980;8.138;2022-09-30T18:25:15;9.50;;;6.67;;
33993;SDS011;20673;48.980;8.138;2022-09-30T18:27:49;7.60;;;6.12;;
33993;SDS011;20673;48.980;8.138;2022-09-30T18:30:23;8.45;;;5.78;;
33993;SDS011;20673;48.980;8.138;2022-09-30T18:32:51;11.88;;;5.85;;
33993;SDS011;20673;48.980;8.138;2022-09-30T18:35:19;11.88;;;7.42;;
33993;SDS011;20673;48.980;8.138;2022-09-30T18:37:48;8.30;;;4.17;;
33993;SDS011;20673;48.980;8.138;2022-09-30T18:40:16;7.67;;;3.75;;
33993;SDS011;20673;48.980;8.138;2022-09-30T18:45:20;5.10;;;3.80;;
33993;SDS011;20673;48.980;8.138;2022-09-30T18:47:47;7.67;;;4.50;;
33993;SDS011;20673;48.980;8.138;2022-09-30T18:50:13;5.90;;;4.30;;
33993;SDS011;20673;48.980;8.138;2022-09-30T18:52:42;5.03;;;4.05;;
33993;SDS011;20673;48.980;8.138;2022-09-30T18:55:08;5.97;;;4.17;;
33993;SDS011;20673;48.980;8.138;2022-09-30T18:57:35;7.92;;;3.67;;
33993;SDS011;20673;48.980;8.138;2022-09-30T19:00:02;5.83;;;3.83;;
33993;SDS011;20673;48.980;8.138;2022-09-30T19:02:30;5.50;;;5.00;;